sensor_id;sensor_type;location;lat;lon;timestamp;pressure;altitude;pressure_sealevel;temperature;humidity
76095;BME280;64821;13.710;100.604;2023-05-16T00:00:49;101032.13;;;36.34;44.09
76095;BME280;64821;13.710;100.604;2023-05-16T00:01:54;101038.44;;;36.34;43.66
76095;BME280;64821;13.710;100.604;2023-05-16T00:02:58;101037.63;;;36.34;43.68
76095;BME280;64821;13.710;100.604;2023-05-16T00:04:02;101033.63;;;36.31;43.95
76095;BME280;64821;13.710;100.604;2023-05-16T00:05:07;101032.00;;;36.30;43.77
76095;BME280;64821;13.710;100.604;2023-05-16T00:06:10;101042.94;;;36.39;44.14
76095;BME280;64821;13.710;100.604;2023-05-16T00:07:14;101046.19;;;36.41;43.93
76095;BME280;64821;13.710;100.604;2023-05-16T00:08:18;101048.22;;;36.44;44.22
76095;BME280;64821;13.710;100.604;2023-05-16T00:09:22;101050.19;;;36.44;44.29
76095;BME280;64821;13.710;100.604;2023-05-16T00:10:25;101048.13;;;36.41;43.79
76095;BME280;64821;13.710;100.604;2023-05-16T00:11:30;101038.56;;;36.38;44.31
76095;BME280;64821;13.710;100.604;2023-05-16T00:12:33;101047.44;;;36.44;44.06
76095;BME280;64821;13.710;100.604;2023-05-16T00:13:37;101049.19;;;36.48;44.08
76095;BME280;64821;13.710;100.604;2023-05-16T00:14:41;101059.53;;;36.51;43.90
76095;BME280;64821;13.710;100.604;2023-05-16T00:15:44;101047.56;;;36.47;43.94
76095;BME280;64821;13.710;100.604;2023-05-16T00:16:48;101057.69;;;36.55;43.98
76095;BME280;64821;13.710;100.604;2023-05-16T00:17:54;101060.91;;;36.57;43.93
76095;BME280;64821;13.710;100.604;2023-05-16T00:18:58;101050.78;;;36.49;43.61
76095;BME280;64821;13.710;100.604;2023-05-16T00:20:02;101060.22;;;36.48;43.78
76095;BME280;64821;13.710;100.604;2023-05-16T00:21:06;101068.72;;;36.55;43.89
76095;BME280;64821;13.710;100.604;2023-05-16T00:22:10;101074.72;;;36.57;43.84
76095;BME280;64821;13.710;100.604;2023-05-16T00:23:13;101074.72;;;36.57;43.48
76095;BME280;64821;13.710;100.604;2023-05-16T00:24:17;101069.19;;;36.57;43.63
76095;BME280;64821;13.710;100.604;2023-05-16T00:25:21;101074.38;;;36.59;43.88
76095;BME280;64821;13.710;100.604;2023-05-16T00:26:25;101072.75;;;36.58;43.53
76095;BME280;64821;13.710;100.604;2023-05-16T00:27:29;101055.03;;;36.47;43.34
76095;BME280;64821;13.710;100.604;2023-05-16T00:28:32;101073.69;;;36.62;43.64
76095;BME280;64821;13.710;100.604;2023-05-16T00:29:36;101074.50;;;36.62;43.93
76095;BME280;64821;13.710;100.604;2023-05-16T00:30:40;101074.13;;;36.64;43.89
76095;BME280;64821;13.710;100.604;2023-05-16T00:31:44;101072.09;;;36.61;43.40
76095;BME280;64821;13.710;100.604;2023-05-16T00:32:48;101077.53;;;36.69;43.82
76095;BME280;64821;13.710;100.604;2023-05-16T00:33:53;101026.88;;;36.41;43.87
76095;BME280;64821;13.710;100.604;2023-05-16T00:34:57;101080.75;;;36.72;43.68
76095;BME280;64821;13.710;100.604;2023-05-16T00:36:01;101039.88;;;36.53;43.63
76095;BME280;64821;13.710;100.604;2023-05-16T00:37:04;101066.66;;;36.64;43.51
76095;BME280;64821;13.710;100.604;2023-05-16T00:38:08;101081.91;;;36.71;43.53
76095;BME280;64821;13.710;100.604;2023-05-16T00:39:12;101074.78;;;36.69;43.24
76095;BME280;64821;13.710;100.604;2023-05-16T00:40:16;101094.31;;;36.77;43.62
76095;BME280;64821;13.710;100.604;2023-05-16T00:41:20;101098.56;;;36.74;43.42
76095;BME280;64821;13.710;100.604;2023-05-16T00:42:24;101093.50;;;36.76;43.05
76095;BME280;64821;13.710;100.604;2023-05-16T00:43:27;101093.50;;;36.76;43.08
76095;BME280;64821;13.710;100.604;2023-05-16T00:44:31;101095.25;;;36.81;42.96
76095;BME280;64821;13.710;100.604;2023-05-16T00:45:35;101103.31;;;36.86;43.13
76095;BME280;64821;13.710;100.604;2023-05-16T00:46:38;101066.56;;;36.61;42.73
76095;BME280;64821;13.710;100.604;2023-05-16T00:47:42;101101.47;;;36.90;43.00
76095;BME280;64821;13.710;100.604;2023-05-16T00:48:46;101093.31;;;36.81;42.88
76095;BME280;64821;13.710;100.604;2023-05-16T00:49:52;101105.84;;;36.91;42.80
76095;BME280;64821;13.710;100.604;2023-05-16T00:50:56;101120.56;;;36.95;42.74
76095;BME280;64821;13.710;100.604;2023-05-16T00:52:00;101103.66;;;36.96;42.68
76095;BME280;64821;13.710;100.604;2023-05-16T00:53:04;101107.22;;;36.97;43.19
76095;BME280;64821;13.710;100.604;2023-05-16T00:54:08;101114.03;;;36.99;42.96
76095;BME280;64821;13.710;100.604;2023-05-16T00:55:12;101116.56;;;37.04;42.85
76095;BME280;64821;13.710;100.604;2023-05-16T00:56:17;101114.50;;;37.01;42.70
76095;BME280;64821;13.710;100.604;2023-05-16T00:57:20;101119.66;;;37.03;42.71
76095;BME280;64821;13.710;100.604;2023-05-16T00:58:24;101130.94;;;37.10;42.56
76095;BME280;64821;13.710;100.604;2023-05-16T00:59:29;101127.03;;;37.11;42.75
76095;BME280;64821;13.710;100.604;2023-05-16T01:00:32;101093.19;;;36.90;42.62
76095;BME280;64821;13.710;100.604;2023-05-16T01:01:36;101130.25;;;37.13;42.73
76095;BME280;64821;13.710;100.604;2023-05-16T01:02:41;101131.56;;;37.16;42.54
76095;BME280;64821;13.710;100.604;2023-05-16T01:03:45;101133.97;;;37.17;42.07
76095;BME280;64821;13.710;100.604;2023-05-16T01:04:51;101133.97;;;37.17;42.29
76095;BME280;64821;13.710;100.604;2023-05-16T01:05:55;101139.16;;;37.19;42.34
76095;BME280;64821;13.710;100.604;2023-05-16T01:06:59;101145.19;;;37.12;41.99
76095;BME280;64821;13.710;100.604;2023-05-16T01:08:04;101120.03;;;37.01;42.37
76095;BME280;64821;13.710;100.604;2023-05-16T01:09:07;101137.88;;;37.16;42.24
76095;BME280;64821;13.710;100.604;2023-05-16T01:10:12;101138.81;;;37.20;42.19
76095;BME280;64821;13.710;100.604;2023-05-16T01:11:23;101143.63;;;37.23;42.01
76095;BME280;64821;13.710;100.604;2023-05-16T01:12:36;101145.50;;;37.19;42.09
76095;BME280;64821;13.710;100.604;2023-05-16T01:13:44;101147.91;;;37.21;41.98
76095;BME280;64821;13.710;100.604;2023-05-16T01:14:59;101141.56;;;37.20;42.03
76095;BME280;64821;13.710;100.604;2023-05-16T01:16:08;101151.69;;;37.28;41.82
76095;BME280;64821;13.710;100.604;2023-05-16T01:17:19;101128.78;;;37.16;41.94
76095;BME280;64821;13.710;100.604;2023-05-16T01:18:29;101161.50;;;37.38;41.92
76095;BME280;64821;13.710;100.604;2023-05-16T01:19:50;101124.72;;;37.13;42.00
76095;BME280;64821;13.710;100.604;2023-05-16T01:21:03;101159.19;;;37.40;42.04
76095;BME280;64821;13.710;100.604;2023-05-16T01:22:15;101160.34;;;37.39;42.01
76095;BME280;64821;13.710;100.604;2023-05-16T01:23:32;101158.38;;;37.39;41.80
76095;BME280;64821;13.710;100.604;2023-05-16T01:24:43;101162.38;;;37.42;41.68
76095;BME280;64821;13.710;100.604;2023-05-16T01:26:14;101163.78;;;37.36;41.71
76095;BME280;64821;13.710;100.604;2023-05-16T01:27:19;101167.00;;;37.38;41.44
76095;BME280;64821;13.710;100.604;2023-05-16T01:28:23;101163.09;;;37.39;41.66
76095;BME280;64821;13.710;100.604;2023-05-16T01:29:27;101127.63;;;37.17;41.76
76095;BME280;64821;13.710;100.604;2023-05-16T01:30:33;101144.09;;;37.37;41.56
76095;BME280;64821;13.710;100.604;2023-05-16T01:31:37;101158.25;;;37.48;41.67
76095;BME280;64821;13.710;100.604;2023-05-16T01:32:41;101160.69;;;37.50;41.24
76095;BME280;64821;13.710;100.604;2023-05-16T01:33:45;101165.84;;;37.51;41.38
76095;BME280;64821;13.710;100.604;2023-05-16T01:34:49;101146.53;;;37.39;40.46
76095;BME280;64821;13.710;100.604;2023-05-16T01:36:00;101151.91;;;37.48;40.38
76095;BME280;64821;13.710;100.604;2023-05-16T01:37:11;101163.88;;;37.52;40.13
76095;BME280;64821;13.710;100.604;2023-05-16T01:38:23;101124.53;;;37.30;39.60
76095;BME280;64821;13.710;100.604;2023-05-16T01:39:32;101160.44;;;37.55;39.06
76095;BME280;64821;13.710;100.604;2023-05-16T01:40:47;101163.19;;;37.55;39.37
76095;BME280;64821;13.710;100.604;2023-05-16T01:42:03;101154.09;;;37.54;39.88
76095;BME280;64821;13.710;100.604;2023-05-16T01:43:10;101181.06;;;37.69;39.57
76095;BME280;64821;13.710;100.604;2023-05-16T01:44:19;101179.22;;;37.73;39.47
76095;BME280;64821;13.710;100.604;2023-05-16T01:45:28;101177.38;;;37.77;39.37
76095;BME280;64821;13.710;100.604;2023-05-16T01:46:39;101182.19;;;37.81;39.22
76095;BME280;64821;13.710;100.604;2023-05-16T01:47:51;101180.69;;;37.83;38.77
76095;BME280;64821;13.710;100.604;2023-05-16T01:49:08;101189.72;;;37.80;38.94
76095;BME280;64821;13.710;100.604;2023-05-16T01:50:15;101174.03;;;37.72;39.31
76095;BME280;64821;13.710;100.604;2023-05-16T01:51:21;101190.03;;;37.78;39.10
76095;BME280;64821;13.710;100.604;2023-05-16T01:52:27;101191.28;;;37.81;39.37
76095;BME280;64821;13.710;100.604;2023-05-16T01:53:37;101192.91;;;37.82;39.29
76095;BME280;64821;13.710;100.604;2023-05-16T01:54:44;101180.34;;;37.72;39.33
76095;BME280;64821;13.710;100.604;2023-05-16T01:55:50;101197.28;;;37.83;39.11
76095;BME280;64821;13.710;100.604;2023-05-16T01:56:55;101180.03;;;37.62;39.47
76095;BME280;64821;13.710;100.604;2023-05-16T01:58:02;101203.53;;;37.80;39.28
76095;BME280;64821;13.710;100.604;2023-05-16T01:59:08;101199.16;;;37.79;39.49
76095;BME280;64821;13.710;100.604;2023-05-16T02:00:13;101203.28;;;37.85;39.70
76095;BME280;64821;13.710;100.604;2023-05-16T02:01:17;101199.09;;;37.91;39.72
76095;BME280;64821;13.710;100.604;2023-05-16T02:02:21;101192.00;;;37.78;39.78
76095;BME280;64821;13.710;100.604;2023-05-16T02:03:27;101198.69;;;37.77;40.03
76095;BME280;64821;13.710;100.604;2023-05-16T02:04:31;101196.47;;;37.83;39.92
76095;BME280;64821;13.710;100.604;2023-05-16T02:05:35;101194.38;;;37.92;39.37
76095;BME280;64821;13.710;100.604;2023-05-16T02:06:38;101183.78;;;37.94;39.35
76095;BME280;64821;13.710;100.604;2023-05-16T02:07:42;101176.88;;;38.00;39.68
76095;BME280;64821;13.710;100.604;2023-05-16T02:08:46;101182.63;;;38.07;38.89
76095;BME280;64821;13.710;100.604;2023-05-16T02:09:50;101187.56;;;38.13;39.54
76095;BME280;64821;13.710;100.604;2023-05-16T02:10:54;101184.44;;;38.15;39.00
76095;BME280;64821;13.710;100.604;2023-05-16T02:11:57;101185.06;;;38.08;40.77
76095;BME280;64821;13.710;100.604;2023-05-16T02:13:03;101149.94;;;37.85;40.20
76095;BME280;64821;13.710;100.604;2023-05-16T02:14:06;101142.56;;;37.89;39.48
76095;BME280;64821;13.710;100.604;2023-05-16T02:15:10;101168.00;;;38.06;39.24
76095;BME280;64821;13.710;100.604;2023-05-16T02:16:14;101180.06;;;38.14;39.52
76095;BME280;64821;13.710;100.604;2023-05-16T02:17:18;101181.69;;;38.15;38.61
76095;BME280;64821;13.710;100.604;2023-05-16T02:18:22;101184.09;;;38.17;39.54
76095;BME280;64821;13.710;100.604;2023-05-16T02:19:25;101179.94;;;38.10;39.26
76095;BME280;64821;13.710;100.604;2023-05-16T02:20:29;101183.63;;;38.14;38.13
76095;BME280;64821;13.710;100.604;2023-05-16T02:21:33;101175.00;;;38.16;37.83
76095;BME280;64821;13.710;100.604;2023-05-16T02:22:37;101180.25;;;38.21;37.75
76095;BME280;64821;13.710;100.604;2023-05-16T02:23:41;101171.88;;;38.18;37.37
76095;BME280;64821;13.710;100.604;2023-05-16T02:24:45;101175.66;;;38.25;38.04
76095;BME280;64821;13.710;100.604;2023-05-16T02:25:48;101178.97;;;38.31;37.56
76095;BME280;64821;13.710;100.604;2023-05-16T02:26:52;101180.22;;;38.33;38.20
76095;BME280;64821;13.710;100.604;2023-05-16T02:27:56;101179.41;;;38.33;37.71
76095;BME280;64821;13.710;100.604;2023-05-16T02:29:02;101189.63;;;38.17;37.82
76095;BME280;64821;13.710;100.604;2023-05-16T02:30:07;101187.56;;;38.13;37.36
76095;BME280;64821;13.710;100.604;2023-05-16T02:31:11;101190.94;;;38.07;37.47
76095;BME280;64821;13.710;100.604;2023-05-16T02:32:14;101198.63;;;38.13;38.22
76095;BME280;64821;13.710;100.604;2023-05-16T02:33:18;101182.69;;;38.23;37.67
76095;BME280;64821;13.710;100.604;2023-05-16T02:34:22;101188.19;;;38.35;37.50
76095;BME280;64821;13.710;100.604;2023-05-16T02:35:25;101193.09;;;38.41;37.53
76095;BME280;64821;13.710;100.604;2023-05-16T02:36:30;101195.22;;;38.32;36.77
76095;BME280;64821;13.710;100.604;2023-05-16T02:37:33;101189.63;;;38.44;37.30
76095;BME280;64821;13.710;100.604;2023-05-16T02:38:38;101193.19;;;38.57;36.21
76095;BME280;64821;13.710;100.604;2023-05-16T02:39:41;101205.06;;;38.58;36.57
76095;BME280;64821;13.710;100.604;2023-05-16T02:40:45;101190.16;;;38.50;36.22
76095;BME280;64821;13.710;100.604;2023-05-16T02:41:49;101185.44;;;38.50;36.36
76095;BME280;64821;13.710;100.604;2023-05-16T02:42:52;101178.56;;;38.44;37.13
76095;BME280;64821;13.710;100.604;2023-05-16T02:43:56;101190.16;;;38.62;36.53
76095;BME280;64821;13.710;100.604;2023-05-16T02:45:01;101192.47;;;38.60;36.80
76095;BME280;64821;13.710;100.604;2023-05-16T02:46:18;101188.03;;;38.71;36.66
76095;BME280;64821;13.710;100.604;2023-05-16T02:47:22;101182.66;;;38.63;36.22
76095;BME280;64821;13.710;100.604;2023-05-16T02:48:26;101176.59;;;38.57;35.08
76095;BME280;64821;13.710;100.604;2023-05-16T02:49:30;101189.19;;;38.70;35.37
76095;BME280;64821;13.710;100.604;2023-05-16T02:50:34;101191.25;;;38.73;35.64
76095;BME280;64821;13.710;100.604;2023-05-16T02:51:37;101190.72;;;38.83;35.93
76095;BME280;64821;13.710;100.604;2023-05-16T02:52:41;101171.50;;;38.75;34.57
76095;BME280;64821;13.710;100.604;2023-05-16T02:53:45;101190.09;;;38.90;35.76
76095;BME280;64821;13.710;100.604;2023-05-16T02:54:49;101192.63;;;38.95;35.97
76095;BME280;64821;13.710;100.604;2023-05-16T02:56:12;101180.97;;;38.90;35.65
76095;BME280;64821;13.710;100.604;2023-05-16T02:57:16;101182.78;;;38.82;33.78
76095;BME280;64821;13.710;100.604;2023-05-16T02:58:20;101187.69;;;38.88;35.48
76095;BME280;64821;13.710;100.604;2023-05-16T02:59:23;101188.25;;;38.94;34.54
76095;BME280;64821;13.710;100.604;2023-05-16T03:00:29;101190.69;;;38.96;34.61
76095;BME280;64821;13.710;100.604;2023-05-16T03:01:33;101187.09;;;38.95;34.51
76095;BME280;64821;13.710;100.604;2023-05-16T03:02:36;101193.91;;;38.98;34.12
76095;BME280;64821;13.710;100.604;2023-05-16T03:03:40;101192.81;;;39.02;34.46
76095;BME280;64821;13.710;100.604;2023-05-16T03:04:45;101196.06;;;39.04;34.12
76095;BME280;64821;13.710;100.604;2023-05-16T03:05:49;101193.75;;;39.06;34.65
76095;BME280;64821;13.710;100.604;2023-05-16T03:06:52;101199.81;;;39.12;34.12
76095;BME280;64821;13.710;100.604;2023-05-16T03:07:56;101193.81;;;39.10;34.79
76095;BME280;64821;13.710;100.604;2023-05-16T03:09:00;101190.78;;;39.15;34.82
76095;BME280;64821;13.710;100.604;2023-05-16T03:10:04;101192.13;;;39.05;34.36
76095;BME280;64821;13.710;100.604;2023-05-16T03:11:08;101187.56;;;39.13;34.17
76095;BME280;64821;13.710;100.604;2023-05-16T03:12:12;101193.19;;;39.16;34.55
76095;BME280;64821;13.710;100.604;2023-05-16T03:13:16;101197.94;;;39.16;34.55
76095;BME280;64821;13.710;100.604;2023-05-16T03:14:19;101196.31;;;39.15;34.24
76095;BME280;64821;13.710;100.604;2023-05-16T03:15:23;101198.34;;;39.18;34.10
76095;BME280;64821;13.710;100.604;2023-05-16T03:16:28;101183.34;;;39.19;34.19
76095;BME280;64821;13.710;100.604;2023-05-16T03:17:32;101189.50;;;39.28;34.36
76095;BME280;64821;13.710;100.604;2023-05-16T03:18:36;101170.22;;;39.16;33.83
76095;BME280;64821;13.710;100.604;2023-05-16T03:19:40;101195.59;;;39.18;33.83
76095;BME280;64821;13.710;100.604;2023-05-16T03:20:43;101184.88;;;39.16;34.96
76095;BME280;64821;13.710;100.604;2023-05-16T03:21:47;101181.47;;;39.23;34.14
76095;BME280;64821;13.710;100.604;2023-05-16T03:22:51;101183.25;;;39.31;34.19
76095;BME280;64821;13.710;100.604;2023-05-16T03:23:55;101179.75;;;39.18;34.72
76095;BME280;64821;13.710;100.604;2023-05-16T03:24:58;101179.41;;;39.20;33.85
76095;BME280;64821;13.710;100.604;2023-05-16T03:26:02;101172.53;;;39.14;34.14
76095;BME280;64821;13.710;100.604;2023-05-16T03:27:06;101173.81;;;39.16;33.96
76095;BME280;64821;13.710;100.604;2023-05-16T03:28:10;101168.31;;;39.20;34.03
76095;BME280;64821;13.710;100.604;2023-05-16T03:29:16;101175.41;;;39.17;33.03
76095;BME280;64821;13.710;100.604;2023-05-16T03:30:21;101169.22;;;39.08;34.27
76095;BME280;64821;13.710;100.604;2023-05-16T03:31:25;101167.94;;;38.90;33.73
76095;BME280;64821;13.710;100.604;2023-05-16T03:32:30;101168.00;;;39.06;34.32
76095;BME280;64821;13.710;100.604;2023-05-16T03:33:34;101174.06;;;39.11;34.50
76095;BME280;64821;13.710;100.604;2023-05-16T03:34:40;101154.50;;;39.04;33.74
76095;BME280;64821;13.710;100.604;2023-05-16T03:35:44;101166.28;;;39.17;33.79
76095;BME280;64821;13.710;100.604;2023-05-16T03:36:48;101164.00;;;38.91;34.38
76095;BME280;64821;13.710;100.604;2023-05-16T03:37:52;101166.84;;;39.07;34.90
76095;BME280;64821;13.710;100.604;2023-05-16T03:38:56;101159.31;;;39.07;34.56
76095;BME280;64821;13.710;100.604;2023-05-16T03:40:00;101160.13;;;39.23;34.53
76095;BME280;64821;13.710;100.604;2023-05-16T03:41:04;101166.00;;;39.22;33.84
76095;BME280;64821;13.710;100.604;2023-05-16T03:42:08;101151.44;;;39.09;33.93
76095;BME280;64821;13.710;100.604;2023-05-16T03:43:12;101151.19;;;39.14;35.03
76095;BME280;64821;13.710;100.604;2023-05-16T03:44:15;101152.16;;;39.22;33.96
76095;BME280;64821;13.710;100.604;2023-05-16T03:45:19;101160.22;;;39.27;33.47
76095;BME280;64821;13.710;100.604;2023-05-16T03:46:23;101137.50;;;39.21;34.06
76095;BME280;64821;13.710;100.604;2023-05-16T03:47:29;101153.13;;;39.30;33.32
76095;BME280;64821;13.710;100.604;2023-05-16T03:48:33;101104.63;;;39.04;34.80
76095;BME280;64821;13.710;100.604;2023-05-16T03:49:37;101117.66;;;39.04;33.70
76095;BME280;64821;13.710;100.604;2023-05-16T03:50:40;101150.47;;;39.17;33.49
76095;BME280;64821;13.710;100.604;2023-05-16T03:51:44;101150.91;;;39.35;33.27
76095;BME280;64821;13.710;100.604;2023-05-16T03:52:48;101153.50;;;39.44;34.09
76095;BME280;64821;13.710;100.604;2023-05-16T03:53:51;101142.59;;;39.19;33.92
76095;BME280;64821;13.710;100.604;2023-05-16T03:54:55;101144.91;;;39.33;33.93
76095;BME280;64821;13.710;100.604;2023-05-16T03:55:59;101142.84;;;39.30;34.36
76095;BME280;64821;13.710;100.604;2023-05-16T03:57:03;101142.06;;;39.45;33.33
76095;BME280;64821;13.710;100.604;2023-05-16T03:58:07;101137.81;;;39.51;33.68
76095;BME280;64821;13.710;100.604;2023-05-16T03:59:10;101136.66;;;39.52;34.11
76095;BME280;64821;13.710;100.604;2023-05-16T04:00:15;101137.06;;;39.70;34.37
76095;BME280;64821;13.710;100.604;2023-05-16T04:01:18;101137.59;;;39.76;34.50
76095;BME280;64821;13.710;100.604;2023-05-16T04:02:22;101125.38;;;39.80;33.56
76095;BME280;64821;13.710;100.604;2023-05-16T04:03:28;101127.78;;;39.82;32.39
76095;BME280;64821;13.710;100.604;2023-05-16T04:04:31;101130.06;;;39.76;32.83
76095;BME280;64821;13.710;100.604;2023-05-16T04:05:35;101130.47;;;39.94;32.75
76095;BME280;64821;13.710;100.604;2023-05-16T04:06:39;101126.81;;;39.90;33.75
76095;BME280;64821;13.710;100.604;2023-05-16T04:07:42;101116.22;;;39.96;33.97
76095;BME280;64821;13.710;100.604;2023-05-16T04:08:46;101117.63;;;40.05;32.71
76095;BME280;64821;13.710;100.604;2023-05-16T04:09:50;101111.47;;;39.96;32.55
76095;BME280;64821;13.710;100.604;2023-05-16T04:10:54;101116.38;;;40.03;32.18
76095;BME280;64821;13.710;100.604;2023-05-16T04:11:58;101117.22;;;40.07;32.70
76095;BME280;64821;13.710;100.604;2023-05-16T04:13:02;101112.13;;;40.09;33.44
76095;BME280;64821;13.710;100.604;2023-05-16T04:14:05;101087.28;;;39.97;32.61
76095;BME280;64821;13.710;100.604;2023-05-16T04:15:09;101097.66;;;40.00;32.96
76095;BME280;64821;13.710;100.604;2023-05-16T04:16:14;101104.00;;;40.19;32.53
76095;BME280;64821;13.710;100.604;2023-05-16T04:17:17;101077.97;;;40.05;33.02
76095;BME280;64821;13.710;100.604;2023-05-16T04:18:21;101100.38;;;40.15;32.98
76095;BME280;64821;13.710;100.604;2023-05-16T04:19:26;101100.78;;;40.17;33.03
76095;BME280;64821;13.710;100.604;2023-05-16T04:20:30;101099.25;;;40.20;32.63
76095;BME280;64821;13.710;100.604;2023-05-16T04:21:34;101092.09;;;40.19;33.39
76095;BME280;64821;13.710;100.604;2023-05-16T04:22:38;101102.41;;;40.18;33.20
76095;BME280;64821;13.710;100.604;2023-05-16T04:23:42;101096.19;;;40.25;32.59
76095;BME280;64821;13.710;100.604;2023-05-16T04:24:46;101089.84;;;40.24;31.95
76095;BME280;64821;13.710;100.604;2023-05-16T04:25:49;101097.09;;;40.29;32.72
76095;BME280;64821;13.710;100.604;2023-05-16T04:26:53;101089.19;;;40.31;32.47
76095;BME280;64821;13.710;100.604;2023-05-16T04:27:57;101081.34;;;40.17;31.53
76095;BME280;64821;13.710;100.604;2023-05-16T04:29:01;101087.94;;;40.28;31.89
76095;BME280;64821;13.710;100.604;2023-05-16T04:30:05;101087.06;;;40.24;32.20
76095;BME280;64821;13.710;100.604;2023-05-16T04:31:09;101089.13;;;40.27;32.09
76095;BME280;64821;13.710;100.604;2023-05-16T04:32:13;101080.19;;;40.38;32.00
76095;BME280;64821;13.710;100.604;2023-05-16T04:33:17;101075.50;;;40.42;32.38
76095;BME280;64821;13.710;100.604;2023-05-16T04:34:21;101079.91;;;40.43;31.26
76095;BME280;64821;13.710;100.604;2023-05-16T04:35:28;101073.91;;;40.41;31.86
76095;BME280;64821;13.710;100.604;2023-05-16T04:36:32;101067.28;;;40.49;32.13
76095;BME280;64821;13.710;100.604;2023-05-16T04:37:36;101057.47;;;40.55;31.45
76095;BME280;64821;13.710;100.604;2023-05-16T04:38:40;101064.63;;;40.56;31.63
76095;BME280;64821;13.710;100.604;2023-05-16T04:39:44;101068.03;;;40.46;31.61
76095;BME280;64821;13.710;100.604;2023-05-16T04:40:47;101073.34;;;40.54;31.71
76095;BME280;64821;13.710;100.604;2023-05-16T04:41:51;101057.47;;;40.55;31.59
76095;BME280;64821;13.710;100.604;2023-05-16T04:42:55;101065.44;;;40.56;31.22
76095;BME280;64821;13.710;100.604;2023-05-16T04:43:59;101038.69;;;40.45;31.03
76095;BME280;64821;13.710;100.604;2023-05-16T04:45:03;101042.63;;;40.44;32.08
76095;BME280;64821;13.710;100.604;2023-05-16T04:46:07;101053.97;;;40.58;30.42
76095;BME280;64821;13.710;100.604;2023-05-16T04:47:11;101051.69;;;40.63;31.68
76095;BME280;64821;13.710;100.604;2023-05-16T04:48:15;101050.09;;;40.62;30.61
76095;BME280;64821;13.710;100.604;2023-05-16T04:49:19;101051.72;;;40.67;31.95
76095;BME280;64821;13.710;100.604;2023-05-16T04:50:22;101042.56;;;40.63;31.21
76095;BME280;64821;13.710;100.604;2023-05-16T04:51:28;101041.22;;;40.53;31.75
76095;BME280;64821;13.710;100.604;2023-05-16T04:52:31;101048.03;;;40.59;30.24
76095;BME280;64821;13.710;100.604;2023-05-16T04:53:35;101044.16;;;40.64;30.88
76095;BME280;64821;13.710;100.604;2023-05-16T04:54:39;101034.38;;;40.70;30.85
76095;BME280;64821;13.710;100.604;2023-05-16T04:55:42;101031.25;;;40.75;31.31
76095;BME280;64821;13.710;100.604;2023-05-16T04:56:46;101028.97;;;40.81;31.43
76095;BME280;64821;13.710;100.604;2023-05-16T04:57:50;101029.81;;;40.85;30.44
76095;BME280;64821;13.710;100.604;2023-05-16T04:58:54;101026.22;;;40.84;30.24
76095;BME280;64821;13.710;100.604;2023-05-16T04:59:57;101019.13;;;40.87;30.04
76095;BME280;64821;13.710;100.604;2023-05-16T05:01:01;101020.00;;;40.91;29.98
76095;BME280;64821;13.710;100.604;2023-05-16T05:02:05;101018.66;;;40.81;29.84
76095;BME280;64821;13.710;100.604;2023-05-16T05:03:09;101018.28;;;40.60;30.70
76095;BME280;64821;13.710;100.604;2023-05-16T05:04:13;101017.13;;;40.61;30.49
76095;BME280;64821;13.710;100.604;2023-05-16T05:05:17;101018.41;;;40.67;29.42
76095;BME280;64821;13.710;100.604;2023-05-16T05:06:21;100999.97;;;40.78;29.82
76095;BME280;64821;13.710;100.604;2023-05-16T05:07:26;101011.03;;;41.01;29.67
76095;BME280;64821;13.710;100.604;2023-05-16T05:08:30;101018.66;;;41.08;30.34
76095;BME280;64821;13.710;100.604;2023-05-16T05:09:33;100994.84;;;40.80;29.67
76095;BME280;64821;13.710;100.604;2023-05-16T05:10:37;101006.72;;;41.07;29.03
76095;BME280;64821;13.710;100.604;2023-05-16T05:11:41;101007.34;;;40.93;30.11
76095;BME280;64821;13.710;100.604;2023-05-16T05:12:45;100997.72;;;40.87;29.79
76095;BME280;64821;13.710;100.604;2023-05-16T05:13:48;101004.75;;;41.08;29.67
76095;BME280;64821;13.710;100.604;2023-05-16T05:14:54;100996.59;;;41.18;29.83
76095;BME280;64821;13.710;100.604;2023-05-16T05:15:58;100980.28;;;41.17;29.53
76095;BME280;64821;13.710;100.604;2023-05-16T05:17:02;100994.94;;;41.14;28.82
76095;BME280;64821;13.710;100.604;2023-05-16T05:18:05;101003.84;;;41.26;29.76
76095;BME280;64821;13.710;100.604;2023-05-16T05:19:09;100988.03;;;41.30;29.56
76095;BME280;64821;13.710;100.604;2023-05-16T05:20:13;100986.03;;;41.31;29.09
76095;BME280;64821;13.710;100.604;2023-05-16T05:21:17;100983.72;;;41.36;28.53
76095;BME280;64821;13.710;100.604;2023-05-16T05:22:21;100972.09;;;41.27;28.71
76095;BME280;64821;13.710;100.604;2023-05-16T05:23:26;100983.06;;;41.17;28.25
76095;BME280;64821;13.710;100.604;2023-05-16T05:24:30;100988.97;;;41.12;28.82
76095;BME280;64821;13.710;100.604;2023-05-16T05:25:35;100976.19;;;41.37;28.95
76095;BME280;64821;13.710;100.604;2023-05-16T05:26:39;100959.56;;;41.41;28.73
76095;BME280;64821;13.710;100.604;2023-05-16T05:27:43;100974.44;;;41.55;28.49
76095;BME280;64821;13.710;100.604;2023-05-16T05:28:47;100972.03;;;41.54;27.87
76095;BME280;64821;13.710;100.604;2023-05-16T05:30:07;100978.03;;;41.56;28.05
76095;BME280;64821;13.710;100.604;2023-05-16T05:31:11;100970.06;;;41.54;27.81